Time;durP1;ratioP1;P1;durP2;ratioP2;P2;SDS_P1;SDS_P2;PMS_P1;PMS_P2;Temp;Humidity;BMP_temperature;BMP_pressure;BME280_temperature;BME280_humidity;BME280_pressure;Samples;Min_cycle;Max_cycle;Signal;HPM_P1;HPM_P2
2022/08/31 00:05:44;;;;;;;;;;;23.60;84.20;;;;;;5096429;28;20010;-53
2022/08/31 00:08:10;;;;;;;;;;;23.60;84.10;;;;;;5096211;28;19959;-53
2022/08/31 00:10:39;;;;;;;;;;;23.60;84.20;;;;;;5096539;28;19930;-53
2022/08/31 00:13:05;;;;;;;;;;;23.60;84.20;;;;;;5096470;28;19919;-54
2022/08/31 00:15:30;;;;;;;;;;;23.60;84.20;;;;;;5096185;28;19908;-52
2022/08/31 00:17:56;;;;;;;;;;;23.60;84.20;;;;;;5096171;28;19908;-53
2022/08/31 00:20:22;;;;;;;;;;;23.60;84.20;;;;;;5096206;28;19908;-48
2022/08/31 00:22:48;;;;;;;;;;;23.60;84.20;;;;;;5096330;28;19908;-51
2022/08/31 00:25:13;;;;;;;;;;;23.60;84.20;;;;;;5095912;28;20057;-52
2022/08/31 00:27:39;;;;;;;;;;;23.60;84.10;;;;;;5095867;28;20011;-54
2022/08/31 00:30:06;;;;;;;;;;;23.60;84.10;;;;;;5096196;28;19919;-51
2022/08/31 00:32:32;;;;;;;;;;;23.60;84.10;;;;;;5096164;28;19912;-51
2022/08/31 00:34:57;;;;;;;;;;;23.60;84.10;;;;;;5094747;28;19915;-50
2022/08/31 00:37:23;;;;;;;;;;;23.60;84.20;;;;;;5096089;28;19908;-52
2022/08/31 00:39:48;;;;;;;;;;;23.60;84.20;;;;;;5095587;28;19908;-51
2022/08/31 00:42:14;;;;;;;;;;;23.60;84.20;;;;;;5095895;28;19916;-52
2022/08/31 00:44:39;;;;;;;;;;;23.60;84.20;;;;;;5095520;28;19912;-51
2022/08/31 00:47:05;;;;;;;;;;;23.60;84.20;;;;;;5095563;28;19912;-51
2022/08/31 00:49:32;;;;;;;;;;;23.60;84.20;;;;;;5095618;28;19912;-53
2022/08/31 00:52:00;;;;;;;;;;;23.60;84.20;;;;;;5095540;28;19908;-52
2022/08/31 00:54:31;;;;;;;;;;;23.60;84.20;;;;;;5095242;28;19908;-53
2022/08/31 00:56:57;;;;;;;;;;;23.60;84.30;;;;;;5095485;28;20370;-53
2022/08/31 00:59:23;;;;;;;;;;;23.60;84.20;;;;;;5095846;28;19908;-50
2022/08/31 01:01:48;;;;;;;;;;;23.60;84.30;;;;;;5094156;28;19908;-54
2022/08/31 01:04:14;;;;;;;;;;;23.60;84.30;;;;;;5095407;28;20270;-50
2022/08/31 01:06:40;;;;;;;;;;;23.60;84.30;;;;;;5095440;28;19919;-51
2022/08/31 01:09:06;;;;;;;;;;;23.50;84.30;;;;;;5095411;28;19915;-53
2022/08/31 01:11:32;;;;;;;;;;;23.50;84.30;;;;;;5094365;28;20301;-52
2022/08/31 01:13:58;;;;;;;;;;;23.50;84.40;;;;;;5095154;28;19908;-54
2022/08/31 01:16:26;;;;;;;;;;;23.50;84.40;;;;;;5095211;28;19970;-49
2022/08/31 01:18:52;;;;;;;;;;;23.50;84.40;;;;;;5095184;28;19908;-53
2022/08/31 01:21:18;;;;;;;;;;;23.60;84.40;;;;;;5093836;28;19999;-52
2022/08/31 01:23:44;;;;;;;;;;;23.50;84.40;;;;;;5093866;28;20014;-50
2022/08/31 01:26:13;;;;;;;;;;;23.50;84.50;;;;;;5095124;28;20275;-52
2022/08/31 01:28:38;;;;;;;;;;;23.50;84.50;;;;;;5095010;28;19923;-53
2022/08/31 01:31:09;;;;;;;;;;;23.50;84.50;;;;;;5095013;28;20019;-53
2022/08/31 01:33:36;;;;;;;;;;;23.50;84.40;;;;;;5094878;28;20405;-52
2022/08/31 01:36:01;;;;;;;;;;;23.50;84.50;;;;;;5094882;28;19908;-55
2022/08/31 01:38:27;;;;;;;;;;;23.50;84.50;;;;;;5094875;28;19908;-54
2022/08/31 01:40:57;;;;;;;;;;;23.50;84.40;;;;;;5094775;28;19975;-52
2022/08/31 01:43:23;;;;;;;;;;;23.50;84.40;;;;;;5093446;28;19908;-50
2022/08/31 01:45:49;;;;;;;;;;;23.50;84.40;;;;;;5094680;28;19912;-54
2022/08/31 01:48:15;;;;;;;;;;;23.50;84.50;;;;;;5094414;28;19912;-54
2022/08/31 01:50:41;;;;;;;;;;;23.50;84.50;;;;;;5094356;28;19969;-54
2022/08/31 01:53:07;;;;;;;;;;;23.50;84.40;;;;;;5094401;28;20381;-52
2022/08/31 01:55:32;;;;;;;;;;;23.50;84.50;;;;;;5094520;28;19930;-50
2022/08/31 01:57:58;;;;;;;;;;;23.50;84.50;;;;;;5094132;28;19938;-52
2022/08/31 02:00:24;;;;;;;;;;;23.50;84.50;;;;;;5094421;28;20007;-50
2022/08/31 02:02:50;;;;;;;;;;;23.50;84.50;;;;;;5094381;28;19963;-52
2022/08/31 02:05:15;;;;;;;;;;;23.50;84.50;;;;;;5094000;28;20366;-51
2022/08/31 02:07:41;;;;;;;;;;;23.50;84.60;;;;;;5094055;28;19912;-54
2022/08/31 02:10:07;;;;;;;;;;;23.50;84.60;;;;;;5093957;28;19939;-54
2022/08/31 02:12:32;;;;;;;;;;;23.50;84.60;;;;;;5094142;28;20442;-53
2022/08/31 02:14:58;;;;;;;;;;;23.50;84.60;;;;;;5093891;28;19915;-51
2022/08/31 02:17:23;;;;;;;;;;;23.50;84.60;;;;;;5094274;28;20010;-52
2022/08/31 02:19:49;;;;;;;;;;;23.50;84.60;;;;;;5094164;28;20007;-53
2022/08/31 02:22:14;;;;;;;;;;;23.50;84.60;;;;;;5094188;28;20369;-54
2022/08/31 02:24:39;;;;;;;;;;;23.50;84.60;;;;;;5093820;28;19912;-54
2022/08/31 02:27:05;;;;;;;;;;;23.40;84.50;;;;;;5094636;28;19991;-52
2022/08/31 02:29:31;;;;;;;;;;;23.50;84.60;;;;;;5094119;28;19908;-54
2022/08/31 02:31:57;;;;;;;;;;;23.50;84.60;;;;;;5093852;28;19951;-53
2022/08/31 02:34:23;;;;;;;;;;;23.40;84.50;;;;;;5093769;28;19908;-52
2022/08/31 02:36:48;;;;;;;;;;;23.50;84.60;;;;;;5093712;28;19908;-51
2022/08/31 02:39:14;;;;;;;;;;;23.40;84.60;;;;;;5093736;28;19915;-49
2022/08/31 02:41:39;;;;;;;;;;;23.40;84.50;;;;;;5093721;28;19909;-51
2022/08/31 02:44:05;;;;;;;;;;;23.50;84.60;;;;;;5093829;28;20014;-55
2022/08/31 02:46:30;;;;;;;;;;;23.50;84.50;;;;;;5093899;28;19912;-51
2022/08/31 02:48:56;;;;;;;;;;;23.50;84.60;;;;;;5094043;28;19961;-50
2022/08/31 02:51:21;;;;;;;;;;;23.50;84.60;;;;;;5093869;28;19915;-49
2022/08/31 02:53:47;;;;;;;;;;;23.50;84.50;;;;;;5093657;28;20351;-54
2022/08/31 02:56:13;;;;;;;;;;;23.50;85.00;;;;;;5093602;28;19950;-53
2022/08/31 02:58:39;;;;;;;;;;;23.50;84.50;;;;;;5093937;28;19909;-53
2022/08/31 03:01:04;;;;;;;;;;;23.50;84.50;;;;;;5093547;28;19912;-53
2022/08/31 03:03:30;;;;;;;;;;;23.50;84.50;;;;;;5093943;28;19927;-52
2022/08/31 03:05:55;;;;;;;;;;;23.50;84.50;;;;;;5092501;28;19912;-54
2022/08/31 03:08:21;;;;;;;;;;;23.50;84.50;;;;;;5092534;28;19908;-54
2022/08/31 03:10:46;;;;;;;;;;;23.50;84.40;;;;;;5093479;28;19908;-53
2022/08/31 03:13:12;;;;;;;;;;;23.50;84.50;;;;;;5093440;28;20409;-53
2022/08/31 03:15:38;;;;;;;;;;;23.50;84.40;;;;;;5092448;28;19908;-53
2022/08/31 03:18:03;;;;;;;;;;;23.50;84.40;;;;;;5095135;28;19908;-51
2022/08/31 03:20:29;;;;;;;;;;;23.50;84.40;;;;;;5096557;28;20348;-53
2022/08/31 03:22:54;;;;;;;;;;;23.50;84.40;;;;;;5097448;28;19957;-53
2022/08/31 03:25:20;;;;;;;;;;;23.50;84.40;;;;;;5097002;28;19919;-50
2022/08/31 03:27:45;;;;;;;;;;;23.50;84.50;;;;;;5096991;28;19912;-53
2022/08/31 03:30:12;;;;;;;;;;;23.50;84.50;;;;;;5097520;28;19961;-54
2022/08/31 03:32:38;;;;;;;;;;;23.50;84.50;;;;;;5097002;28;19908;-54
2022/08/31 03:35:04;;;;;;;;;;;23.50;84.60;;;;;;5096874;28;19908;-50
2022/08/31 03:37:30;;;;;;;;;;;23.40;84.50;;;;;;5097128;28;20006;-52
2022/08/31 03:39:55;;;;;;;;;;;23.50;84.60;;;;;;5097030;28;19939;-52
2022/08/31 03:42:21;;;;;;;;;;;23.50;84.60;;;;;;5097038;28;19908;-52
2022/08/31 03:44:46;;;;;;;;;;;23.50;84.50;;;;;;5096669;28;19912;-51
2022/08/31 03:47:12;;;;;;;;;;;23.40;84.50;;;;;;5096919;28;20385;-55
2022/08/31 03:49:37;;;;;;;;;;;23.50;84.50;;;;;;5095604;28;19908;-50
2022/08/31 03:52:03;;;;;;;;;;;23.50;84.50;;;;;;5096892;28;19943;-53
2022/08/31 03:54:29;;;;;;;;;;;23.50;84.60;;;;;;5096782;28;19938;-52
2022/08/31 03:56:54;;;;;;;;;;;23.50;84.60;;;;;;5095490;28;19951;-51
2022/08/31 03:59:20;;;;;;;;;;;23.40;84.60;;;;;;5096733;28;20275;-54
2022/08/31 04:01:45;;;;;;;;;;;23.50;84.60;;;;;;5096097;28;20302;-49
2022/08/31 04:04:12;;;;;;;;;;;23.40;84.50;;;;;;5096623;28;19919;-53
2022/08/31 04:06:41;;;;;;;;;;;23.40;84.50;;;;;;5096574;28;19912;-52
2022/08/31 04:09:07;;;;;;;;;;;23.40;84.50;;;;;;5096115;28;19915;-52
2022/08/31 04:11:32;;;;;;;;;;;23.40;84.60;;;;;;5096243;28;19908;-50
2022/08/31 04:13:57;;;;;;;;;;;23.40;84.60;;;;;;5096345;28;19908;-53
2022/08/31 04:16:23;;;;;;;;;;;23.40;84.50;;;;;;5096019;28;19908;-55
2022/08/31 04:18:49;;;;;;;;;;;23.40;84.50;;;;;;5095927;28;19951;-52
2022/08/31 04:21:20;;;;;;;;;;;23.40;84.50;;;;;;5095967;28;19912;-50
2022/08/31 04:23:46;;;;;;;;;;;23.40;84.50;;;;;;5095820;28;19912;-54
2022/08/31 04:26:19;;;;;;;;;;;23.40;84.50;;;;;;5096104;28;19951;-52
2022/08/31 04:28:45;;;;;;;;;;;23.40;84.50;;;;;;5095932;28;19912;-50
2022/08/31 04:31:11;;;;;;;;;;;23.40;84.60;;;;;;5095530;28;19909;-51
2022/08/31 04:33:37;;;;;;;;;;;23.40;84.50;;;;;;5096384;28;19916;-52
2022/08/31 04:36:10;;;;;;;;;;;23.40;84.50;;;;;;5096256;28;19915;-53
2022/08/31 04:38:35;;;;;;;;;;;23.40;84.60;;;;;;5095561;28;19912;-53
2022/08/31 04:41:04;;;;;;;;;;;23.50;84.50;;;;;;5095903;28;19908;-53
2022/08/31 04:43:30;;;;;;;;;;;23.50;84.50;;;;;;5095613;28;19908;-54
2022/08/31 04:45:56;;;;;;;;;;;23.50;84.50;;;;;;5095789;28;20418;-55
2022/08/31 04:48:21;;;;;;;;;;;23.50;84.50;;;;;;5095647;28;19916;-51
2022/08/31 04:50:49;;;;;;;;;;;23.40;84.50;;;;;;5095247;28;20350;-53
2022/08/31 04:53:15;;;;;;;;;;;23.40;84.50;;;;;;5095838;28;19919;-49
2022/08/31 04:55:41;;;;;;;;;;;23.40;84.50;;;;;;5095169;28;19934;-55
2022/08/31 04:58:07;;;;;;;;;;;23.40;84.60;;;;;;5095297;28;19931;-53
2022/08/31 05:00:33;;;;;;;;;;;23.40;84.60;;;;;;5095112;28;19912;-48
2022/08/31 05:02:58;;;;;;;;;;;23.40;84.60;;;;;;5095147;28;20349;-52
2022/08/31 05:05:24;;;;;;;;;;;23.40;84.50;;;;;;5094976;28;19912;-54
2022/08/31 05:07:49;;;;;;;;;;;23.40;84.50;;;;;;5094534;28;19912;-51
2022/08/31 05:10:15;;;;;;;;;;;23.40;84.60;;;;;;5095129;28;19920;-53
2022/08/31 05:12:41;;;;;;;;;;;23.40;84.60;;;;;;5095445;28;19915;-53
2022/08/31 05:15:06;;;;;;;;;;;23.40;84.50;;;;;;5095087;28;19908;-55
2022/08/31 05:17:32;;;;;;;;;;;23.40;84.60;;;;;;5095427;28;19908;-55
2022/08/31 05:19:57;;;;;;;;;;;23.40;85.10;;;;;;5094709;28;20359;-52
2022/08/31 05:22:22;;;;;;;;;;;23.40;84.60;;;;;;5093692;28;19908;-52
2022/08/31 05:24:48;;;;;;;;;;;23.40;84.60;;;;;;5094321;28;20355;-54
2022/08/31 05:27:14;;;;;;;;;;;23.40;84.60;;;;;;5094461;28;19912;-54
2022/08/31 05:29:39;;;;;;;;;;;23.40;84.60;;;;;;5094330;28;19908;-53
2022/08/31 05:32:05;;;;;;;;;;;23.40;84.70;;;;;;5093470;28;19918;-50
2022/08/31 05:34:30;;;;;;;;;;;23.40;84.70;;;;;;5094473;28;19908;-55
2022/08/31 05:36:56;;;;;;;;;;;23.40;84.70;;;;;;5094089;28;19999;-51
2022/08/31 05:39:22;;;;;;;;;;;23.40;84.70;;;;;;5094109;28;19908;-51
2022/08/31 05:41:47;;;;;;;;;;;23.40;84.70;;;;;;5093543;28;19907;-52
2022/08/31 05:44:13;;;;;;;;;;;23.40;84.60;;;;;;5094268;28;19912;-52
2022/08/31 05:46:39;;;;;;;;;;;23.40;84.60;;;;;;5093945;28;19913;-52
2022/08/31 05:49:06;;;;;;;;;;;23.40;84.60;;;;;;5094380;28;19919;-52
2022/08/31 05:51:31;;;;;;;;;;;23.40;84.60;;;;;;5094488;28;20003;-53
2022/08/31 05:54:01;;;;;;;;;;;23.40;84.50;;;;;;5093961;28;19952;-51
2022/08/31 05:56:26;;;;;;;;;;;23.40;84.60;;;;;;5092663;28;19915;-52
2022/08/31 05:58:52;;;;;;;;;;;23.40;84.60;;;;;;5093892;28;19908;-54
2022/08/31 06:01:19;;;;;;;;;;;23.40;84.60;;;;;;5094289;28;19908;-54
2022/08/31 06:03:45;;;;;;;;;;;23.40;84.50;;;;;;5094219;28;20377;-52
2022/08/31 06:06:11;;;;;;;;;;;23.40;84.50;;;;;;5093880;28;19912;-52
2022/08/31 06:08:38;;;;;;;;;;;23.40;84.50;;;;;;5093307;28;19908;-50
2022/08/31 06:11:04;;;;;;;;;;;23.50;84.50;;;;;;5094032;28;19913;-52
2022/08/31 06:13:30;;;;;;;;;;;23.40;84.50;;;;;;5093669;28;19912;-52
2022/08/31 06:15:57;;;;;;;;;;;23.40;84.50;;;;;;5093879;28;19918;-50
2022/08/31 06:18:23;;;;;;;;;;;23.40;84.60;;;;;;5093692;28;19955;-51
2022/08/31 06:20:48;;;;;;;;;;;23.40;84.60;;;;;;5093720;28;20391;-52
2022/08/31 06:23:15;;;;;;;;;;;23.50;84.60;;;;;;5094272;28;19908;-51
2022/08/31 06:25:41;;;;;;;;;;;23.50;84.60;;;;;;5093449;28;19912;-50
2022/08/31 06:28:10;;;;;;;;;;;23.50;84.60;;;;;;5093348;28;19995;-51
2022/08/31 06:30:35;;;;;;;;;;;23.50;84.60;;;;;;5093471;28;19955;-51
2022/08/31 06:33:01;;;;;;;;;;;23.50;84.60;;;;;;5093628;28;19930;-54
2022/08/31 06:35:27;;;;;;;;;;;23.50;84.50;;;;;;5093866;28;20007;-53
2022/08/31 06:37:53;;;;;;;;;;;23.50;84.60;;;;;;5092525;28;19948;-51
2022/08/31 06:40:18;;;;;;;;;;;23.50;84.50;;;;;;5093669;28;19915;-53
2022/08/31 06:42:44;;;;;;;;;;;23.50;84.60;;;;;;5092151;28;19908;-49
2022/08/31 06:45:10;;;;;;;;;;;23.50;84.50;;;;;;5093496;28;20047;-53
2022/08/31 06:47:35;;;;;;;;;;;23.50;84.50;;;;;;5093375;28;19955;-53
2022/08/31 06:50:01;;;;;;;;;;;23.50;84.50;;;;;;5093558;28;19957;-52
2022/08/31 06:52:26;;;;;;;;;;;23.50;84.50;;;;;;5094322;28;19991;-53
2022/08/31 06:54:52;;;;;;;;;;;23.50;84.50;;;;;;5096503;28;19958;-53
2022/08/31 06:57:18;;;;;;;;;;;23.50;84.50;;;;;;5097503;28;20003;-53
2022/08/31 06:59:44;;;;;;;;;;;23.50;84.50;;;;;;5097639;28;19978;-51
2022/08/31 07:02:09;;;;;;;;;;;23.50;84.50;;;;;;5097379;28;19967;-54
2022/08/31 07:04:36;;;;;;;;;;;23.50;84.50;;;;;;5097220;28;19916;-52
2022/08/31 07:07:03;;;;;;;;;;;23.50;84.60;;;;;;5097606;28;19973;-53
2022/08/31 07:09:29;;;;;;;;;;;23.50;84.60;;;;;;5097693;28;19912;-53
2022/08/31 07:11:54;;;;;;;;;;;23.50;84.50;;;;;;5096618;28;19942;-53
2022/08/31 07:14:22;;;;;;;;;;;23.50;84.60;;;;;;5097593;28;20010;-51
2022/08/31 07:16:48;;;;;;;;;;;23.50;84.50;;;;;;5097288;28;19955;-54
2022/08/31 07:19:14;;;;;;;;;;;23.50;84.60;;;;;;5096809;28;19915;-54
2022/08/31 07:21:47;;;;;;;;;;;23.50;84.60;;;;;;5096955;28;19944;-53
2022/08/31 07:24:14;;;;;;;;;;;23.50;84.60;;;;;;5097095;28;19912;-53
2022/08/31 07:26:42;;;;;;;;;;;23.50;84.60;;;;;;5096771;28;19912;-55
2022/08/31 07:29:09;;;;;;;;;;;23.50;84.50;;;;;;5096704;28;19908;-53
2022/08/31 07:31:47;;;;;;;;;;;23.50;84.60;;;;;;5097077;28;20481;-50
2022/08/31 07:34:24;;;;;;;;;;;23.50;84.60;;;;;;5096854;28;19908;-54
2022/08/31 07:42:20;;;;;;;;;;;23.50;84.60;;;;;;5096704;28;19959;-54
2022/08/31 07:44:49;;;;;;;;;;;23.50;84.70;;;;;;5096918;28;20315;-52
2022/08/31 07:47:18;;;;;;;;;;;23.50;84.70;;;;;;5096600;28;20028;-53
2022/08/31 07:49:49;;;;;;;;;;;23.50;84.80;;;;;;5096975;28;19941;-54
2022/08/31 07:52:19;;;;;;;;;;;23.50;84.90;;;;;;5096675;28;19927;-53
2022/08/31 07:54:45;;;;;;;;;;;23.50;84.80;;;;;;5096643;28;19919;-53
2022/08/31 07:57:12;;;;;;;;;;;23.50;84.80;;;;;;5096307;28;19908;-53
2022/08/31 07:59:38;;;;;;;;;;;23.50;84.80;;;;;;5096580;28;20236;-55
2022/08/31 08:02:04;;;;;;;;;;;23.50;84.80;;;;;;5096277;28;19974;-52
2022/08/31 08:04:30;;;;;;;;;;;23.50;84.90;;;;;;5093547;28;20007;-53
2022/08/31 08:06:58;;;;;;;;;;;23.40;84.80;;;;;;5096331;28;19944;-52
2022/08/31 08:09:28;;;;;;;;;;;23.50;85.00;;;;;;5095059;28;19908;-53
2022/08/31 08:11:56;;;;;;;;;;;23.40;84.90;;;;;;5096322;28;19909;-53
2022/08/31 08:14:26;;;;;;;;;;;23.40;84.90;;;;;;5095913;28;19915;-55
2022/08/31 08:16:52;;;;;;;;;;;23.40;84.90;;;;;;5095831;28;19916;-53
2022/08/31 08:19:18;;;;;;;;;;;23.50;84.90;;;;;;5096055;28;19916;-54
2022/08/31 08:21:44;;;;;;;;;;;23.40;84.90;;;;;;5095792;28;19916;-52
2022/08/31 08:24:10;;;;;;;;;;;23.40;84.80;;;;;;5095872;28;20003;-55
2022/08/31 08:26:36;;;;;;;;;;;23.40;84.80;;;;;;5095704;28;19962;-53
2022/08/31 08:29:05;;;;;;;;;;;23.40;84.80;;;;;;5095852;28;19908;-54
2022/08/31 08:31:30;;;;;;;;;;;23.40;84.80;;;;;;5095752;28;19908;-51
2022/08/31 08:33:56;;;;;;;;;;;23.40;84.80;;;;;;5095365;28;19908;-56
2022/08/31 08:36:22;;;;;;;;;;;23.40;84.80;;;;;;5095308;28;19931;-53
2022/08/31 08:38:49;;;;;;;;;;;23.40;84.90;;;;;;5094403;28;20362;-53
2022/08/31 08:41:18;;;;;;;;;;;23.40;84.90;;;;;;5095567;28;19951;-51
2022/08/31 08:43:45;;;;;;;;;;;23.40;84.90;;;;;;5095511;28;19915;-53
2022/08/31 08:46:13;;;;;;;;;;;23.40;84.90;;;;;;5094985;28;20362;-52
2022/08/31 08:48:40;;;;;;;;;;;23.40;84.90;;;;;;5095564;28;19915;-51
2022/08/31 08:51:17;;;;;;;;;;;23.40;84.80;;;;;;5095634;28;19912;-50
2022/08/31 08:53:44;;;;;;;;;;;23.40;84.80;;;;;;5095685;28;19956;-53
2022/08/31 08:56:10;;;;;;;;;;;23.40;84.90;;;;;;5094058;28;19913;-55
2022/08/31 08:58:37;;;;;;;;;;;23.40;84.90;;;;;;5095002;28;19912;-52
2022/08/31 09:01:02;;;;;;;;;;;23.40;84.90;;;;;;5093600;28;19952;-55
2022/08/31 09:03:51;;;;;;;;;;;23.40;84.90;;;;;;5095160;28;19956;-51
2022/08/31 09:06:26;;;;;;;;;;;23.40;84.90;;;;;;5089236;28;20332;-54
2022/08/31 09:09:07;;;;;;;;;;;23.40;84.80;;;;;;5095100;28;19908;-53
2022/08/31 09:11:45;;;;;;;;;;;23.40;84.80;;;;;;5094998;28;19909;-54
2022/08/31 09:14:14;;;;;;;;;;;23.50;84.70;;;;;;5095240;28;20396;-55
2022/08/31 09:16:43;;;;;;;;;;;23.50;84.60;;;;;;5094759;28;19908;-54
2022/08/31 09:19:16;;;;;;;;;;;23.50;84.50;;;;;;5093695;28;19952;-55
2022/08/31 09:21:52;;;;;;;;;;;23.50;84.60;;;;;;5095245;28;19908;-52
2022/08/31 09:24:19;;;;;;;;;;;23.50;84.60;;;;;;5094973;28;19912;-54
2022/08/31 09:26:50;;;;;;;;;;;23.60;84.60;;;;;;5094769;28;19923;-55
2022/08/31 09:29:20;;;;;;;;;;;23.60;84.60;;;;;;5094828;28;19912;-52
2022/08/31 09:31:45;;;;;;;;;;;23.60;84.60;;;;;;5093443;28;20358;-53
2022/08/31 09:34:24;;;;;;;;;;;23.60;84.50;;;;;;5094802;28;19943;-53
2022/08/31 09:36:50;;;;;;;;;;;23.60;84.50;;;;;;5094483;28;19915;-52
2022/08/31 09:39:17;;;;;;;;;;;23.60;84.40;;;;;;5094491;28;19912;-50
2022/08/31 09:41:43;;;;;;;;;;;23.60;84.40;;;;;;5094065;28;19915;-56
2022/08/31 09:44:34;;;;;;;;;;;23.60;84.40;;;;;;5094082;28;20271;-52
2022/08/31 09:47:04;;;;;;;;;;;23.60;84.40;;;;;;5093888;28;19919;-53
2022/08/31 09:49:36;;;;;;;;;;;23.60;84.40;;;;;;5094395;28;19965;-53
2022/08/31 09:52:17;;;;;;;;;;;23.60;84.40;;;;;;5093189;28;19961;-52
2022/08/31 09:57:48;;;;;;;;;;;23.60;84.30;;;;;;5094087;28;19919;-52
2022/08/31 10:00:14;;;;;;;;;;;23.60;84.30;;;;;;5094157;28;20008;-53
2022/08/31 10:02:41;;;;;;;;;;;23.60;84.30;;;;;;5094103;28;19967;-55
2022/08/31 10:05:25;;;;;;;;;;;23.60;84.30;;;;;;5094067;28;19960;-53
2022/08/31 10:08:03;;;;;;;;;;;23.60;84.30;;;;;;5094229;28;19912;-54
2022/08/31 10:10:31;;;;;;;;;;;23.60;84.30;;;;;;5094032;28;20347;-54
2022/08/31 10:13:00;;;;;;;;;;;23.60;84.30;;;;;;5094134;28;19911;-51
2022/08/31 10:15:27;;;;;;;;;;;23.60;84.30;;;;;;5094099;28;20066;-56
2022/08/31 10:17:56;;;;;;;;;;;23.60;84.30;;;;;;5094064;28;19908;-54
2022/08/31 10:20:29;;;;;;;;;;;23.60;84.30;;;;;;5093861;28;20375;-54
2022/08/31 10:22:57;;;;;;;;;;;23.60;84.30;;;;;;5093924;28;19919;-55
2022/08/31 10:25:22;;;;;;;;;;;23.60;84.30;;;;;;5093626;28;20343;-55
2022/08/31 10:28:05;;;;;;;;;;;23.60;84.30;;;;;;5093199;28;19913;-54
2022/08/31 10:30:38;;;;;;;;;;;23.60;84.30;;;;;;5094024;28;19908;-52
2022/08/31 10:33:09;;;;;;;;;;;23.60;84.30;;;;;;5093937;28;19912;-47
2022/08/31 10:35:51;;;;;;;;;;;23.60;84.30;;;;;;5093555;28;19957;-54
2022/08/31 10:38:24;;;;;;;;;;;23.60;84.30;;;;;;5094190;28;19908;-53
2022/08/31 10:41:11;;;;;;;;;;;23.60;84.30;;;;;;5094313;28;19908;-52
2022/08/31 10:43:44;;;;;;;;;;;23.60;84.30;;;;;;5094060;28;19915;-50
2022/08/31 10:46:10;;;;;;;;;;;23.60;84.30;;;;;;5094293;28;20227;-49
2022/08/31 10:48:50;;;;;;;;;;;23.60;84.30;;;;;;5093410;28;19909;-53
2022/08/31 10:51:26;;;;;;;;;;;23.60;84.30;;;;;;5093511;28;20453;-50
2022/08/31 10:54:02;;;;;;;;;;;23.60;84.30;;;;;;5093337;28;20017;-50
2022/08/31 10:56:42;;;;;;;;;;;23.60;84.30;;;;;;5093386;28;20316;-52
2022/08/31 10:59:21;;;;;;;;;;;23.60;84.30;;;;;;5093704;28;19912;-53
2022/08/31 11:01:53;;;;;;;;;;;23.60;84.30;;;;;;5093294;28;19926;-53
2022/08/31 11:04:37;;;;;;;;;;;23.60;84.30;;;;;;5092165;28;19918;-51
2022/08/31 11:07:11;;;;;;;;;;;23.60;84.40;;;;;;5093867;28;19916;-49
2022/08/31 11:09:55;;;;;;;;;;;23.60;84.40;;;;;;5093598;28;19915;-53
2022/08/31 11:12:28;;;;;;;;;;;23.60;84.40;;;;;;5093794;28;19916;-54
2022/08/31 11:15:12;;;;;;;;;;;23.60;84.40;;;;;;5092387;28;19908;-51
2022/08/31 11:18:04;;;;;;;;;;;23.50;84.40;;;;;;5093903;28;19980;-55
2022/08/31 11:20:38;;;;;;;;;;;23.60;84.40;;;;;;5091393;28;19913;-55
2022/08/31 11:23:05;;;;;;;;;;;23.50;84.40;;;;;;5093257;28;20306;-55
2022/08/31 11:25:49;;;;;;;;;;;23.50;84.40;;;;;;5093513;28;19965;-54
2022/08/31 11:28:35;;;;;;;;;;;23.60;84.50;;;;;;5093118;28;20011;-51
2022/08/31 11:31:18;;;;;;;;;;;23.50;84.40;;;;;;5080845;28;19909;-53
2022/08/31 11:33:49;;;;;;;;;;;23.50;84.40;;;;;;5093399;28;19908;-55
2022/08/31 11:36:36;;;;;;;;;;;23.50;84.50;;;;;;5093218;28;19909;-53
2022/08/31 11:39:02;;;;;;;;;;;23.50;84.50;;;;;;5092805;28;20320;-50
2022/08/31 11:41:30;;;;;;;;;;;23.50;84.50;;;;;;5096782;28;19944;-52
2022/08/31 11:43:56;;;;;;;;;;;23.50;84.60;;;;;;5096987;28;19912;-53
2022/08/31 11:46:24;;;;;;;;;;;23.50;84.60;;;;;;5096761;28;19912;-52
2022/08/31 11:48:50;;;;;;;;;;;23.50;84.60;;;;;;5096622;28;20362;-51
2022/08/31 11:51:32;;;;;;;;;;;23.50;84.60;;;;;;5097092;28;19912;-53
2022/08/31 11:54:00;;;;;;;;;;;23.50;84.60;;;;;;5096482;28;19908;-52
2022/08/31 11:56:34;;;;;;;;;;;23.50;84.60;;;;;;5096472;28;19916;-51
2022/08/31 11:59:17;;;;;;;;;;;23.40;84.60;;;;;;5096298;28;19908;-50
2022/08/31 12:01:43;;;;;;;;;;;23.40;84.60;;;;;;5096373;28;19912;-53
2022/08/31 12:04:28;;;;;;;;;;;23.40;84.60;;;;;;5096520;28;19912;-50
2022/08/31 12:06:56;;;;;;;;;;;23.40;84.60;;;;;;5096254;28;20287;-53
2022/08/31 12:09:22;;;;;;;;;;;23.50;84.70;;;;;;5095929;28;19908;-49
2022/08/31 12:11:54;;;;;;;;;;;23.40;84.70;;;;;;5096099;28;19999;-53
2022/08/31 12:14:32;;;;;;;;;;;23.40;84.60;;;;;;5096037;28;19909;-49
2022/08/31 12:17:11;;;;;;;;;;;23.40;84.60;;;;;;5096155;28;19953;-54
2022/08/31 12:19:59;;;;;;;;;;;23.50;84.70;;;;;;5095801;28;20390;-49
2022/08/31 12:25:33;;;;;;;;;;;23.50;84.70;;;;;;5095593;28;19961;-51
2022/08/31 12:28:17;;;;;;;;;;;23.40;84.70;;;;;;5095391;28;20354;-53
2022/08/31 12:30:47;;;;;;;;;;;23.40;84.70;;;;;;5095912;28;19979;-51
2022/08/31 12:33:17;;;;;;;;;;;23.40;84.70;;;;;;5096174;28;20040;-49
2022/08/31 12:35:45;;;;;;;;;;;23.40;84.70;;;;;;5095825;28;19915;-51
2022/08/31 12:38:18;;;;;;;;;;;23.40;84.80;;;;;;5095222;28;19908;-50
2022/08/31 12:40:45;;;;;;;;;;;23.40;84.70;;;;;;5095326;28;19918;-49
2022/08/31 12:43:16;;;;;;;;;;;23.40;84.80;;;;;;5095637;28;19915;-51
2022/08/31 12:45:41;;;;;;;;;;;23.40;84.80;;;;;;5095186;28;19912;-52
2022/08/31 12:48:23;;;;;;;;;;;23.40;84.70;;;;;;5095026;28;19912;-50
2022/08/31 12:51:12;;;;;;;;;;;23.40;84.80;;;;;;5094784;28;19912;-53
2022/08/31 12:53:52;;;;;;;;;;;23.40;84.80;;;;;;5075590;28;20262;-55
2022/08/31 12:56:40;;;;;;;;;;;23.40;84.80;;;;;;5095505;28;20201;-50
2022/08/31 12:59:17;;;;;;;;;;;23.40;84.80;;;;;;5094996;28;19908;-52
2022/08/31 13:01:45;;;;;;;;;;;23.40;84.80;;;;;;5095021;28;19962;-52
2022/08/31 13:04:13;;;;;;;;;;;23.40;84.90;;;;;;5095019;28;20007;-53
2022/08/31 13:06:40;;;;;;;;;;;23.40;84.80;;;;;;5095082;28;19921;-48
2022/08/31 13:09:06;;;;;;;;;;;23.40;84.90;;;;;;5095079;28;19912;-51
2022/08/31 13:11:42;;;;;;;;;;;23.40;84.90;;;;;;5095292;28;19908;-50
2022/08/31 13:14:08;;;;;;;;;;;23.30;84.80;;;;;;5095295;28;20054;-52
2022/08/31 13:16:34;;;;;;;;;;;23.40;84.90;;;;;;5094909;28;19958;-53
2022/08/31 13:19:02;;;;;;;;;;;23.40;84.90;;;;;;5094590;28;19908;-54
2022/08/31 13:21:27;;;;;;;;;;;23.30;84.90;;;;;;5093641;28;19994;-54
2022/08/31 13:24:02;;;;;;;;;;;23.40;85.00;;;;;;5094706;28;20283;-53
2022/08/31 13:26:28;;;;;;;;;;;23.40;85.00;;;;;;5094668;28;19912;-53
2022/08/31 13:28:55;;;;;;;;;;;23.30;85.00;;;;;;5094484;28;19915;-54
2022/08/31 13:31:22;;;;;;;;;;;23.30;85.10;;;;;;5093424;28;19912;-52
2022/08/31 13:33:48;;;;;;;;;;;23.30;85.10;;;;;;5094788;28;19999;-52
2022/08/31 13:36:32;;;;;;;;;;;23.30;85.10;;;;;;5094694;28;19956;-54
2022/08/31 13:39:00;;;;;;;;;;;23.30;85.10;;;;;;5094429;28;19961;-53
2022/08/31 13:41:37;;;;;;;;;;;23.30;85.20;;;;;;5094242;28;19912;-50
2022/08/31 13:44:05;;;;;;;;;;;23.30;85.20;;;;;;5094243;28;19908;-53
2022/08/31 13:46:33;;;;;;;;;;;23.30;85.20;;;;;;5094262;28;20389;-52
2022/08/31 13:49:00;;;;;;;;;;;23.30;85.20;;;;;;5094294;28;19908;-53
2022/08/31 13:51:29;;;;;;;;;;;23.30;85.70;;;;;;5094073;28;19953;-50
2022/08/31 13:53:54;;;;;;;;;;;23.30;85.20;;;;;;5093810;28;19908;-51
2022/08/31 13:59:23;;;;;;;;;;;23.30;85.20;;;;;;5094122;28;19915;-55
2022/08/31 14:02:00;;;;;;;;;;;23.30;85.20;;;;;;5093166;28;20313;-53
2022/08/31 14:04:42;;;;;;;;;;;23.30;85.10;;;;;;5093648;28;20329;-52
2022/08/31 14:07:08;;;;;;;;;;;23.30;85.10;;;;;;5094030;28;20003;-52
2022/08/31 14:09:39;;;;;;;;;;;23.30;85.20;;;;;;5093791;28;19908;-51
2022/08/31 14:12:08;;;;;;;;;;;23.30;85.30;;;;;;5093657;28;19973;-51
2022/08/31 14:14:41;;;;;;;;;;;23.30;85.20;;;;;;5093380;28;19918;-51
2022/08/31 14:17:10;;;;;;;;;;;23.20;85.10;;;;;;5093419;28;19950;-52
2022/08/31 14:19:39;;;;;;;;;;;23.20;85.10;;;;;;5093611;28;19931;-54
2022/08/31 14:22:15;;;;;;;;;;;23.20;85.20;;;;;;5092275;28;19908;-51
2022/08/31 14:24:41;;;;;;;;;;;23.20;85.10;;;;;;5093361;28;19912;-53
2022/08/31 14:27:08;;;;;;;;;;;23.20;85.20;;;;;;5094003;28;19919;-54
2022/08/31 14:29:35;;;;;;;;;;;23.20;85.20;;;;;;5093550;28;19995;-56
2022/08/31 14:32:02;;;;;;;;;;;23.30;85.20;;;;;;5093994;28;19908;-53
2022/08/31 14:34:30;;;;;;;;;;;23.30;85.20;;;;;;5093483;28;20002;-51
2022/08/31 14:37:05;;;;;;;;;;;23.30;85.20;;;;;;5093337;28;20354;-51
2022/08/31 14:39:38;;;;;;;;;;;23.20;85.10;;;;;;5093302;28;19909;-51
2022/08/31 14:42:04;;;;;;;;;;;23.30;85.10;;;;;;5093392;28;19930;-53
2022/08/31 14:44:31;;;;;;;;;;;23.30;85.10;;;;;;5092036;28;20314;-53